Iver Bright — ZDKU4 — position and weather

sailwx.info

Track history (hours):
 
Tides and Currents Weather Stations Pressure Air Temp Water Temp Dewpoint Dewpoint Depression Visibility Wind Speed Wind Dir Waves Ship Positions

Iver Bright

Last reported at 2014-Sep-22 13:32 UTC. Time now 2014-Sep-22 14:13 UTC.
Position N 37°39' E 009°47'.

Length 111 m; draft 6.6 m.

Type: Tanker. MMSI: 236111811.

Date/timePositionNaut miles runAvg speedWind from/ knotsBaromVisibWave heightAir tempDewpointWater temp
2014-Sep-22 13:32N 37°39' E 009°47'1211.8
2014-Sep-22 12:32N 37°39' E 010°02'1211.9
2014-Sep-22 11:33N 37°38' E 010°17'1312.6
2014-Sep-22 10:33N 37°31' E 010°29'1812.8
2014-Sep-22 09:10N 37°13' E 010°30'812.7
2014-Sep-22 08:32N 37°05' E 010°30'18 0.6
2014-Sep-21 01:14N 36°47' E 010°28'0 0.0
2014-Sep-21 00:32N 36°47' E 010°28'0 0.0
2014-Sep-20 23:29N 36°47' E 010°28'0 0.0
2014-Sep-20 22:32N 36°47' E 010°28'2 0.5
2014-Sep-20 18:30N 36°49' E 010°29'1010.7
2014-Sep-20 17:33N 36°59' E 010°32'1212.4
2014-Sep-20 16:32N 37°09' E 010°41'1212.2
2014-Sep-20 15:33N 37°19' E 010°49'1211.5
2014-Sep-20 14:32N 37°27' E 010°60'1512.8
2014-Sep-20 13:24N 37°24' E 011°18'11412.9
2014-Sep-20 04:33N 36°48' E 013°33'1612.4
2014-Sep-20 03:16N 36°41' E 013°51'912.3
2014-Sep-20 02:33N 36°38' E 014°02'1312.2
2014-Sep-20 01:32N 36°33' E 014°16'1212.5
2014-Sep-20 00:33N 36°28' E 014°30'1312.1
2014-Sep-19 23:29N 36°26' E 014°45'7 0.2
2014-Sep-18 01:33N 36°25' E 014°37'10 9.5
2014-Sep-18 00:31N 36°27' E 014°25'1310.2
2014-Sep-17 23:18N 36°31' E 014°10'810.3
2014-Sep-17 22:33N 36°33' E 014°01'1010.1
2014-Sep-17 21:33N 36°36' E 013°49'1210.1
2014-Sep-17 20:21N 36°40' E 013°35'810.3
2014-Sep-17 19:32N 36°43' E 013°25'1010.1
2014-Sep-17 18:32N 36°46' E 013°13'9 9.7
2014-Sep-17 17:33N 36°48' E 013°01'8 8.0
2014-Sep-17 16:33N 36°50' E 012°52'8 7.6
2014-Sep-17 15:33N 36°53' E 012°43'7 7.2
2014-Sep-17 14:33N 36°54' E 012°34'8 7.3
2014-Sep-17 13:31N 36°56' E 012°25'7 7.7
2014-Sep-17 12:33N 36°59' E 012°16'8 7.4
2014-Sep-17 11:29N 37°02' E 012°07'16 7.0
2014-Sep-17 09:08N 37°07' E 011°47'5 8.0
2014-Sep-17 08:32N 37°08' E 011°42'1312.9
2014-Sep-17 07:33N 37°14' E 011°28'2813.3
2014-Sep-17 05:27N 37°27' E 010°56'4513.8
2014-Sep-17 02:10N 37°34' E 009°60'914.3
2014-Sep-17 01:33N 37°31' E 009°50'1514.3
2014-Sep-17 00:30N 37°26' E 009°31'1313.7
2014-Sep-16 23:31N 37°22' E 009°15'1313.5
2014-Sep-16 22:33N 37°18' E 008°60'1313.4
2014-Sep-16 21:34N 37°18' E 008°43'1413.1
2014-Sep-16 20:30N 37°18' E 008°25'1213.0
2014-Sep-16 19:33N 37°18' E 008°10'1313.3
2014-Sep-16 18:33N 37°18' E 007°53'1413.5
2014-Sep-16 17:32N 37°18' E 007°36'1313.4
2014-Sep-16 16:33N 37°15' E 007°20'2412.2
2014-Sep-16 14:33N 36°56' E 006°60'159 3.4
2014-Sep-14 16:05N 37°39' E 010°12'1811.8
2014-Sep-14 14:31N 37°35' E 010°35'1211.9
2014-Sep-14 13:33N 37°33' E 010°49'1511.5
2014-Sep-14 12:15N 37°28' E 011°07'11812.1
2014-Sep-14 02:27N 36°50' E 013°28'1011.6
2014-Sep-14 01:33N 36°46' E 013°39'4511.1
2014-Sep-13 21:33N 36°28' E 014°30'1111.3
2014-Sep-13 20:33N 36°25' E 014°44'  
Track history (hours):
 
Tides and Currents Weather Stations Pressure Air Temp Water Temp Dewpoint Dewpoint Depression Visibility Wind Speed Wind Dir Waves Ship Positions

Iver Bright

Last reported at 2014-Sep-22 13:32 UTC. Time now 2014-Sep-22 14:13 UTC.
Position N 37°39' E 009°47'.

Length 111 m; draft 6.6 m.

Type: Tanker. MMSI: 236111811.

Date/timePositionNaut miles runAvg speedWind from/ knotsBaromVisibWave heightAir tempDewpointWater temp
2014-Sep-22 13:32N 37°39' E 009°47'1211.8
2014-Sep-22 12:32N 37°39' E 010°02'1211.9
2014-Sep-22 11:33N 37°38' E 010°17'1312.6
2014-Sep-22 10:33N 37°31' E 010°29'1812.8
2014-Sep-22 09:10N 37°13' E 010°30'812.7
2014-Sep-22 08:32N 37°05' E 010°30'18 0.6
2014-Sep-21 01:14N 36°47' E 010°28'0 0.0
2014-Sep-21 00:32N 36°47' E 010°28'0 0.0
2014-Sep-20 23:29N 36°47' E 010°28'0 0.0
2014-Sep-20 22:32N 36°47' E 010°28'2 0.5
2014-Sep-20 18:30N 36°49' E 010°29'1010.7
2014-Sep-20 17:33N 36°59' E 010°32'1212.4
2014-Sep-20 16:32N 37°09' E 010°41'1212.2
2014-Sep-20 15:33N 37°19' E 010°49'1211.5
2014-Sep-20 14:32N 37°27' E 010°60'1512.8
2014-Sep-20 13:24N 37°24' E 011°18'11412.9
2014-Sep-20 04:33N 36°48' E 013°33'1612.4
2014-Sep-20 03:16N 36°41' E 013°51'912.3
2014-Sep-20 02:33N 36°38' E 014°02'1312.2
2014-Sep-20 01:32N 36°33' E 014°16'1212.5
2014-Sep-20 00:33N 36°28' E 014°30'1312.1
2014-Sep-19 23:29N 36°26' E 014°45'7 0.2
2014-Sep-18 01:33N 36°25' E 014°37'10 9.5
2014-Sep-18 00:31N 36°27' E 014°25'1310.2
2014-Sep-17 23:18N 36°31' E 014°10'810.3
2014-Sep-17 22:33N 36°33' E 014°01'1010.1
2014-Sep-17 21:33N 36°36' E 013°49'1210.1
2014-Sep-17 20:21N 36°40' E 013°35'810.3
2014-Sep-17 19:32N 36°43' E 013°25'1010.1
2014-Sep-17 18:32N 36°46' E 013°13'9 9.7
2014-Sep-17 17:33N 36°48' E 013°01'8 8.0
2014-Sep-17 16:33N 36°50' E 012°52'8 7.6
2014-Sep-17 15:33N 36°53' E 012°43'7 7.2
2014-Sep-17 14:33N 36°54' E 012°34'8 7.3
2014-Sep-17 13:31N 36°56' E 012°25'7 7.7
2014-Sep-17 12:33N 36°59' E 012°16'8 7.4
2014-Sep-17 11:29N 37°02' E 012°07'16 7.0
2014-Sep-17 09:08N 37°07' E 011°47'5 8.0
2014-Sep-17 08:32N 37°08' E 011°42'1312.9
2014-Sep-17 07:33N 37°14' E 011°28'2813.3
2014-Sep-17 05:27N 37°27' E 010°56'4513.8
2014-Sep-17 02:10N 37°34' E 009°60'914.3
2014-Sep-17 01:33N 37°31' E 009°50'1514.3
2014-Sep-17 00:30N 37°26' E 009°31'1313.7
2014-Sep-16 23:31N 37°22' E 009°15'1313.5
2014-Sep-16 22:33N 37°18' E 008°60'1313.4
2014-Sep-16 21:34N 37°18' E 008°43'1413.1
2014-Sep-16 20:30N 37°18' E 008°25'1213.0
2014-Sep-16 19:33N 37°18' E 008°10'1313.3
2014-Sep-16 18:33N 37°18' E 007°53'1413.5
2014-Sep-16 17:32N 37°18' E 007°36'1313.4
2014-Sep-16 16:33N 37°15' E 007°20'2412.2
2014-Sep-16 14:33N 36°56' E 006°60'159 3.4
2014-Sep-14 16:05N 37°39' E 010°12'1811.8
2014-Sep-14 14:31N 37°35' E 010°35'1211.9
2014-Sep-14 13:33N 37°33' E 010°49'1511.5
2014-Sep-14 12:15N 37°28' E 011°07'11812.1
2014-Sep-14 02:27N 36°50' E 013°28'1011.6
2014-Sep-14 01:33N 36°46' E 013°39'4511.1
2014-Sep-13 21:33N 36°28' E 014°30'1111.3
2014-Sep-13 20:33N 36°25' E 014°44'  

Dump ship's entire track history